sensor_id;sensor_type;location;lat;lon;timestamp;pressure;altitude;pressure_sealevel;temperature;humidity
57114;BME280;42994;51.606;9.988;2023-06-26T00:02:14;98996.53;;;18.23;100.00
57114;BME280;42994;51.606;9.988;2023-06-26T00:04:42;98994.91;;;18.39;100.00
57114;BME280;42994;51.606;9.988;2023-06-26T00:07:09;98992.94;;;18.35;100.00
57114;BME280;42994;51.606;9.988;2023-06-26T00:09:36;98990.72;;;18.32;100.00
57114;BME280;42994;51.606;9.988;2023-06-26T00:12:04;98987.41;;;18.01;100.00
57114;BME280;42994;51.606;9.988;2023-06-26T00:14:31;98988.75;;;17.86;100.00
57114;BME280;42994;51.606;9.988;2023-06-26T00:16:58;98977.94;;;18.15;100.00
57114;BME280;42994;51.606;9.988;2023-06-26T00:19:24;98984.66;;;18.13;100.00
57114;BME280;42994;51.606;9.988;2023-06-26T00:21:51;98986.09;;;18.32;100.00
57114;BME280;42994;51.606;9.988;2023-06-26T00:24:17;98992.03;;;18.29;100.00
57114;BME280;42994;51.606;9.988;2023-06-26T00:26:47;98992.66;;;18.19;100.00
57114;BME280;42994;51.606;9.988;2023-06-26T00:29:15;98985.19;;;18.27;100.00
57114;BME280;42994;51.606;9.988;2023-06-26T00:31:42;98979.09;;;18.19;100.00
57114;BME280;42994;51.606;9.988;2023-06-26T00:34:08;98984.56;;;18.08;100.00
57114;BME280;42994;51.606;9.988;2023-06-26T00:36:35;98980.47;;;17.81;100.00
57114;BME280;42994;51.606;9.988;2023-06-26T00:39:03;98976.84;;;17.88;100.00
57114;BME280;42994;51.606;9.988;2023-06-26T00:41:30;98977.34;;;18.13;100.00
57114;BME280;42994;51.606;9.988;2023-06-26T00:43:57;98987.63;;;18.11;100.00
57114;BME280;42994;51.606;9.988;2023-06-26T00:46:27;98982.38;;;17.93;100.00
57114;BME280;42994;51.606;9.988;2023-06-26T00:48:54;98973.97;;;17.94;100.00
57114;BME280;42994;51.606;9.988;2023-06-26T00:51:21;98961.44;;;18.05;100.00
57114;BME280;42994;51.606;9.988;2023-06-26T00:53:49;98968.53;;;18.06;100.00
57114;BME280;42994;51.606;9.988;2023-06-26T00:56:17;98966.28;;;18.03;100.00
57114;BME280;42994;51.606;9.988;2023-06-26T00:58:44;98957.69;;;18.06;100.00
57114;BME280;42994;51.606;9.988;2023-06-26T01:01:12;98961.53;;;18.10;100.00
57114;BME280;42994;51.606;9.988;2023-06-26T01:03:44;98959.81;;;18.04;100.00
57114;BME280;42994;51.606;9.988;2023-06-26T01:06:13;98952.16;;;18.01;100.00
57114;BME280;42994;51.606;9.988;2023-06-26T01:08:41;98952.03;;;17.96;100.00
57114;BME280;42994;51.606;9.988;2023-06-26T01:11:08;98952.47;;;17.52;100.00
57114;BME280;42994;51.606;9.988;2023-06-26T01:13:35;98946.22;;;17.63;100.00
57114;BME280;42994;51.606;9.988;2023-06-26T01:16:03;98950.06;;;17.79;100.00
57114;BME280;42994;51.606;9.988;2023-06-26T01:18:32;98944.97;;;17.54;100.00
57114;BME280;42994;51.606;9.988;2023-06-26T01:21:01;98943.53;;;17.52;100.00
57114;BME280;42994;51.606;9.988;2023-06-26T01:23:34;98939.03;;;17.69;100.00
57114;BME280;42994;51.606;9.988;2023-06-26T01:26:15;98932.34;;;17.60;100.00
57114;BME280;42994;51.606;9.988;2023-06-26T01:28:43;98939.19;;;17.51;100.00
57114;BME280;42994;51.606;9.988;2023-06-26T01:31:11;98931.19;;;17.32;100.00
57114;BME280;42994;51.606;9.988;2023-06-26T01:33:40;98927.81;;;17.25;100.00
57114;BME280;42994;51.606;9.988;2023-06-26T01:36:07;98926.75;;;17.14;100.00
57114;BME280;42994;51.606;9.988;2023-06-26T01:38:35;98921.91;;;17.16;100.00
57114;BME280;42994;51.606;9.988;2023-06-26T01:41:02;98915.19;;;17.19;100.00
57114;BME280;42994;51.606;9.988;2023-06-26T01:43:36;98925.19;;;17.42;100.00
57114;BME280;42994;51.606;9.988;2023-06-26T01:46:10;98927.63;;;17.55;100.00
57114;BME280;42994;51.606;9.988;2023-06-26T01:48:42;98924.59;;;17.40;100.00
57114;BME280;42994;51.606;9.988;2023-06-26T01:51:13;98917.00;;;17.54;100.00
57114;BME280;42994;51.606;9.988;2023-06-26T01:53:45;98925.19;;;17.30;100.00
57114;BME280;42994;51.606;9.988;2023-06-26T01:56:15;98916.34;;;17.35;100.00
57114;BME280;42994;51.606;9.988;2023-06-26T01:58:46;98913.28;;;17.19;100.00
57114;BME280;42994;51.606;9.988;2023-06-26T02:01:13;98920.16;;;17.22;100.00
57114;BME280;42994;51.606;9.988;2023-06-26T02:03:40;98910.16;;;17.10;100.00
57114;BME280;42994;51.606;9.988;2023-06-26T02:06:06;98898.91;;;16.71;100.00
57114;BME280;42994;51.606;9.988;2023-06-26T02:08:33;98896.13;;;16.90;100.00
57114;BME280;42994;51.606;9.988;2023-06-26T02:11:00;98896.09;;;16.78;100.00
57114;BME280;42994;51.606;9.988;2023-06-26T02:13:26;98896.38;;;17.00;100.00
57114;BME280;42994;51.606;9.988;2023-06-26T02:15:54;98891.06;;;16.94;100.00
57114;BME280;42994;51.606;9.988;2023-06-26T02:18:21;98893.66;;;17.00;100.00
57114;BME280;42994;51.606;9.988;2023-06-26T02:20:48;98892.31;;;16.79;100.00
57114;BME280;42994;51.606;9.988;2023-06-26T02:23:15;98891.06;;;16.82;100.00
57114;BME280;42994;51.606;9.988;2023-06-26T02:25:42;98881.44;;;16.86;100.00
57114;BME280;42994;51.606;9.988;2023-06-26T02:28:09;98885.78;;;16.87;100.00
57114;BME280;42994;51.606;9.988;2023-06-26T02:30:35;98888.00;;;17.02;100.00
57114;BME280;42994;51.606;9.988;2023-06-26T02:33:03;98883.31;;;16.85;100.00
57114;BME280;42994;51.606;9.988;2023-06-26T02:35:30;98878.28;;;16.35;100.00
57114;BME280;42994;51.606;9.988;2023-06-26T02:37:58;98877.13;;;16.66;100.00
57114;BME280;42994;51.606;9.988;2023-06-26T02:40:25;98885.97;;;16.73;100.00
57114;BME280;42994;51.606;9.988;2023-06-26T02:42:52;98877.75;;;16.68;100.00
57114;BME280;42994;51.606;9.988;2023-06-26T02:45:20;98882.44;;;16.73;100.00
57114;BME280;42994;51.606;9.988;2023-06-26T02:47:46;98879.31;;;16.88;100.00
57114;BME280;42994;51.606;9.988;2023-06-26T02:50:14;98883.97;;;16.81;100.00
57114;BME280;42994;51.606;9.988;2023-06-26T02:53:02;98874.53;;;16.36;100.00
57114;BME280;42994;51.606;9.988;2023-06-26T02:55:28;98872.81;;;16.65;100.00
57114;BME280;42994;51.606;9.988;2023-06-26T02:57:56;98877.28;;;16.60;100.00
57114;BME280;42994;51.606;9.988;2023-06-26T03:00:23;98872.69;;;16.48;100.00
57114;BME280;42994;51.606;9.988;2023-06-26T03:02:53;98872.56;;;16.55;100.00
57114;BME280;42994;51.606;9.988;2023-06-26T03:05:22;98865.59;;;16.36;100.00
57114;BME280;42994;51.606;9.988;2023-06-26T03:07:50;98870.78;;;16.61;100.00
57114;BME280;42994;51.606;9.988;2023-06-26T03:10:17;98874.34;;;16.61;100.00
57114;BME280;42994;51.606;9.988;2023-06-26T03:12:44;98873.38;;;16.44;100.00
57114;BME280;42994;51.606;9.988;2023-06-26T03:15:10;98870.06;;;16.53;100.00
57114;BME280;42994;51.606;9.988;2023-06-26T03:17:38;98870.06;;;16.53;100.00
57114;BME280;42994;51.606;9.988;2023-06-26T03:20:08;98869.16;;;16.60;100.00
57114;BME280;42994;51.606;9.988;2023-06-26T03:23:03;98865.75;;;16.52;100.00
57114;BME280;42994;51.606;9.988;2023-06-26T03:25:30;98870.91;;;16.54;100.00
57114;BME280;42994;51.606;9.988;2023-06-26T03:28:08;98869.25;;;16.53;100.00
57114;BME280;42994;51.606;9.988;2023-06-26T03:30:35;98870.44;;;16.57;100.00
57114;BME280;42994;51.606;9.988;2023-06-26T03:33:02;98867.84;;;16.62;100.00
57114;BME280;42994;51.606;9.988;2023-06-26T03:35:29;98871.88;;;16.60;100.00
57114;BME280;42994;51.606;9.988;2023-06-26T03:37:56;98869.97;;;16.60;100.00
57114;BME280;42994;51.606;9.988;2023-06-26T03:40:24;98866.91;;;16.57;100.00
57114;BME280;42994;51.606;9.988;2023-06-26T03:42:51;98868.81;;;16.56;100.00
57114;BME280;42994;51.606;9.988;2023-06-26T03:45:18;98875.84;;;16.57;100.00
57114;BME280;42994;51.606;9.988;2023-06-26T03:47:45;98868.81;;;16.56;100.00
57114;BME280;42994;51.606;9.988;2023-06-26T03:50:14;98860.56;;;16.51;100.00
57114;BME280;42994;51.606;9.988;2023-06-26T03:52:40;98870.56;;;16.50;100.00
57114;BME280;42994;51.606;9.988;2023-06-26T03:55:07;98853.47;;;16.50;100.00
57114;BME280;42994;51.606;9.988;2023-06-26T03:57:35;98860.19;;;16.47;100.00
57114;BME280;42994;51.606;9.988;2023-06-26T04:00:03;98868.44;;;16.52;100.00
57114;BME280;42994;51.606;9.988;2023-06-26T04:02:40;98861.13;;;16.53;100.00
57114;BME280;42994;51.606;9.988;2023-06-26T04:05:07;98858.78;;;16.57;100.00
57114;BME280;42994;51.606;9.988;2023-06-26T04:07:37;98847.75;;;16.58;100.00
57114;BME280;42994;51.606;9.988;2023-06-26T04:10:06;98853.38;;;16.57;100.00
57114;BME280;42994;51.606;9.988;2023-06-26T04:12:33;98848.69;;;16.64;100.00
57114;BME280;42994;51.606;9.988;2023-06-26T04:15:01;98846.91;;;16.69;100.00
57114;BME280;42994;51.606;9.988;2023-06-26T04:17:28;98855.25;;;16.68;100.00
57114;BME280;42994;51.606;9.988;2023-06-26T04:19:54;98846.56;;;16.66;100.00
57114;BME280;42994;51.606;9.988;2023-06-26T04:22:21;98847.03;;;16.75;100.00
57114;BME280;42994;51.606;9.988;2023-06-26T04:24:48;98848.06;;;16.73;100.00
57114;BME280;42994;51.606;9.988;2023-06-26T04:27:14;98846.00;;;16.76;100.00
57114;BME280;42994;51.606;9.988;2023-06-26T04:29:42;98857.41;;;16.78;100.00
57114;BME280;42994;51.606;9.988;2023-06-26T04:32:10;98850.91;;;16.79;100.00
57114;BME280;42994;51.606;9.988;2023-06-26T04:34:36;98858.72;;;16.87;100.00
57114;BME280;42994;51.606;9.988;2023-06-26T04:37:06;98848.69;;;16.76;100.00
57114;BME280;42994;51.606;9.988;2023-06-26T04:39:35;98840.94;;;16.56;100.00
57114;BME280;42994;51.606;9.988;2023-06-26T04:42:04;98839.97;;;16.50;100.00
57114;BME280;42994;51.606;9.988;2023-06-26T04:44:31;98827.28;;;16.50;100.00
57114;BME280;42994;51.606;9.988;2023-06-26T04:46:57;98829.63;;;16.59;100.00
57114;BME280;42994;51.606;9.988;2023-06-26T04:49:25;98832.53;;;16.81;100.00
57114;BME280;42994;51.606;9.988;2023-06-26T04:51:53;98828.09;;;16.98;100.00
57114;BME280;42994;51.606;9.988;2023-06-26T04:54:19;98832.53;;;17.04;100.00
57114;BME280;42994;51.606;9.988;2023-06-26T04:56:46;98824.66;;;17.15;100.00
57114;BME280;42994;51.606;9.988;2023-06-26T04:59:13;98822.81;;;17.32;100.00
57114;BME280;42994;51.606;9.988;2023-06-26T05:01:40;98813.34;;;17.46;100.00
57114;BME280;42994;51.606;9.988;2023-06-26T05:04:07;98815.25;;;17.75;100.00
57114;BME280;42994;51.606;9.988;2023-06-26T05:06:35;98821.09;;;17.83;100.00
57114;BME280;42994;51.606;9.988;2023-06-26T05:09:02;98817.78;;;18.10;100.00
57114;BME280;42994;51.606;9.988;2023-06-26T05:11:29;98813.53;;;18.31;100.00
57114;BME280;42994;51.606;9.988;2023-06-26T05:13:55;98823.38;;;18.54;100.00
57114;BME280;42994;51.606;9.988;2023-06-26T05:16:22;98817.56;;;18.46;100.00
57114;BME280;42994;51.606;9.988;2023-06-26T05:18:49;98819.44;;;18.62;100.00
57114;BME280;42994;51.606;9.988;2023-06-26T05:21:16;98816.91;;;18.77;100.00
57114;BME280;42994;51.606;9.988;2023-06-26T05:23:45;98816.13;;;18.77;100.00
57114;BME280;42994;51.606;9.988;2023-06-26T05:26:12;98822.34;;;18.94;100.00
57114;BME280;42994;51.606;9.988;2023-06-26T05:28:40;98814.66;;;19.08;100.00
57114;BME280;42994;51.606;9.988;2023-06-26T05:31:07;98820.41;;;19.12;100.00
57114;BME280;42994;51.606;9.988;2023-06-26T05:33:35;98813.22;;;19.23;100.00
57114;BME280;42994;51.606;9.988;2023-06-26T05:36:04;98817.59;;;19.73;100.00
57114;BME280;42994;51.606;9.988;2023-06-26T05:38:31;98821.72;;;19.75;100.00
57114;BME280;42994;51.606;9.988;2023-06-26T05:41:00;98816.66;;;19.89;100.00
57114;BME280;42994;51.606;9.988;2023-06-26T05:43:26;98818.34;;;20.23;100.00
57114;BME280;42994;51.606;9.988;2023-06-26T05:45:53;98820.63;;;20.73;100.00
57114;BME280;42994;51.606;9.988;2023-06-26T05:48:20;98830.34;;;21.07;100.00
57114;BME280;42994;51.606;9.988;2023-06-26T05:50:47;98826.63;;;21.23;100.00
57114;BME280;42994;51.606;9.988;2023-06-26T05:53:14;98825.66;;;21.55;100.00
57114;BME280;42994;51.606;9.988;2023-06-26T05:55:41;98830.59;;;21.63;100.00
57114;BME280;42994;51.606;9.988;2023-06-26T05:58:10;98826.00;;;21.79;100.00
57114;BME280;42994;51.606;9.988;2023-06-26T06:00:38;98820.25;;;21.71;100.00
57114;BME280;42994;51.606;9.988;2023-06-26T06:03:05;98827.69;;;22.11;100.00
57114;BME280;42994;51.606;9.988;2023-06-26T06:05:32;98824.16;;;22.11;100.00
57114;BME280;42994;51.606;9.988;2023-06-26T06:07:58;98829.63;;;22.62;100.00
57114;BME280;42994;51.606;9.988;2023-06-26T06:10:25;98825.75;;;21.96;100.00
57114;BME280;42994;51.606;9.988;2023-06-26T06:12:52;98819.78;;;22.15;100.00
57114;BME280;42994;51.606;9.988;2023-06-26T06:15:21;98829.03;;;22.08;100.00
57114;BME280;42994;51.606;9.988;2023-06-26T06:17:47;98818.94;;;22.09;100.00
57114;BME280;42994;51.606;9.988;2023-06-26T06:20:14;98829.34;;;22.63;100.00
57114;BME280;42994;51.606;9.988;2023-06-26T06:22:41;98824.72;;;22.38;100.00
57114;BME280;42994;51.606;9.988;2023-06-26T06:25:08;98822.44;;;22.97;100.00
57114;BME280;42994;51.606;9.988;2023-06-26T06:27:35;98817.34;;;22.49;100.00
57114;BME280;42994;51.606;9.988;2023-06-26T06:30:02;98819.47;;;22.01;100.00
57114;BME280;42994;51.606;9.988;2023-06-26T06:32:30;98814.59;;;22.13;100.00
57114;BME280;42994;51.606;9.988;2023-06-26T06:34:56;98810.19;;;21.76;100.00
57114;BME280;42994;51.606;9.988;2023-06-26T06:37:23;98811.81;;;21.82;100.00
57114;BME280;42994;51.606;9.988;2023-06-26T06:39:50;98815.34;;;21.73;100.00
57114;BME280;42994;51.606;9.988;2023-06-26T06:42:17;98811.28;;;22.21;100.00
57114;BME280;42994;51.606;9.988;2023-06-26T06:44:43;98813.22;;;22.62;100.00
57114;BME280;42994;51.606;9.988;2023-06-26T06:47:10;98813.19;;;22.77;100.00
57114;BME280;42994;51.606;9.988;2023-06-26T06:49:38;98815.66;;;22.69;100.00
57114;BME280;42994;51.606;9.988;2023-06-26T06:52:05;98811.03;;;22.54;100.00
57114;BME280;42994;51.606;9.988;2023-06-26T06:54:32;98811.19;;;23.19;100.00
57114;BME280;42994;51.606;9.988;2023-06-26T06:57:17;98803.59;;;22.85;100.00
57114;BME280;42994;51.606;9.988;2023-06-26T06:59:43;98811.31;;;22.52;100.00
57114;BME280;42994;51.606;9.988;2023-06-26T07:02:10;98801.44;;;23.52;100.00
57114;BME280;42994;51.606;9.988;2023-06-26T07:04:38;98800.03;;;22.95;100.00
57114;BME280;42994;51.606;9.988;2023-06-26T07:07:05;98802.22;;;22.93;100.00
57114;BME280;42994;51.606;9.988;2023-06-26T07:09:31;98806.03;;;22.97;100.00
57114;BME280;42994;51.606;9.988;2023-06-26T07:11:58;98804.59;;;23.20;100.00
57114;BME280;42994;51.606;9.988;2023-06-26T07:14:25;98809.00;;;23.16;100.00
57114;BME280;42994;51.606;9.988;2023-06-26T07:16:52;98813.53;;;23.46;100.00
57114;BME280;42994;51.606;9.988;2023-06-26T07:19:18;98805.03;;;23.48;100.00
57114;BME280;42994;51.606;9.988;2023-06-26T07:21:46;98798.97;;;23.56;100.00
57114;BME280;42994;51.606;9.988;2023-06-26T07:24:13;98806.47;;;23.90;100.00
57114;BME280;42994;51.606;9.988;2023-06-26T07:26:40;98802.84;;;23.94;100.00
57114;BME280;42994;51.606;9.988;2023-06-26T07:29:06;98804.00;;;24.57;100.00
57114;BME280;42994;51.606;9.988;2023-06-26T07:31:33;98799.34;;;24.58;100.00
57114;BME280;42994;51.606;9.988;2023-06-26T07:34:00;98799.28;;;24.33;100.00
57114;BME280;42994;51.606;9.988;2023-06-26T07:36:27;98797.13;;;24.25;100.00
57114;BME280;42994;51.606;9.988;2023-06-26T07:38:55;98801.59;;;24.16;100.00
57114;BME280;42994;51.606;9.988;2023-06-26T07:41:21;98794.66;;;24.58;100.00
57114;BME280;42994;51.606;9.988;2023-06-26T07:43:48;98792.25;;;24.81;100.00
57114;BME280;42994;51.606;9.988;2023-06-26T07:46:14;98793.63;;;24.49;100.00
57114;BME280;42994;51.606;9.988;2023-06-26T07:48:41;98797.94;;;24.60;100.00
57114;BME280;42994;51.606;9.988;2023-06-26T07:51:08;98791.41;;;24.56;100.00
57114;BME280;42994;51.606;9.988;2023-06-26T07:53:34;98798.09;;;24.74;100.00
57114;BME280;42994;51.606;9.988;2023-06-26T07:56:02;98788.50;;;25.20;100.00
57114;BME280;42994;51.606;9.988;2023-06-26T07:58:29;98787.09;;;25.22;100.00
57114;BME280;42994;51.606;9.988;2023-06-26T08:00:56;98795.06;;;25.00;100.00
57114;BME280;42994;51.606;9.988;2023-06-26T08:03:22;98790.28;;;25.10;100.00
57114;BME280;42994;51.606;9.988;2023-06-26T08:05:49;98798.06;;;25.22;100.00
57114;BME280;42994;51.606;9.988;2023-06-26T08:08:16;98800.06;;;25.17;100.00
57114;BME280;42994;51.606;9.988;2023-06-26T08:10:43;98802.19;;;25.25;100.00
57114;BME280;42994;51.606;9.988;2023-06-26T08:13:11;98800.09;;;25.11;100.00
57114;BME280;42994;51.606;9.988;2023-06-26T08:15:37;98813.84;;;25.36;100.00
57114;BME280;42994;51.606;9.988;2023-06-26T08:18:04;98804.09;;;25.24;100.00
57114;BME280;42994;51.606;9.988;2023-06-26T08:20:31;98813.44;;;24.99;100.00
57114;BME280;42994;51.606;9.988;2023-06-26T08:22:58;98801.25;;;24.86;100.00
57114;BME280;42994;51.606;9.988;2023-06-26T08:25:24;98805.69;;;25.49;100.00
57114;BME280;42994;51.606;9.988;2023-06-26T08:27:51;98804.31;;;25.04;100.00
57114;BME280;42994;51.606;9.988;2023-06-26T08:30:20;98806.25;;;25.27;100.00
57114;BME280;42994;51.606;9.988;2023-06-26T08:32:47;98803.59;;;25.17;100.00
57114;BME280;42994;51.606;9.988;2023-06-26T08:35:14;98803.56;;;25.22;100.00
57114;BME280;42994;51.606;9.988;2023-06-26T08:37:41;98799.69;;;25.28;100.00
57114;BME280;42994;51.606;9.988;2023-06-26T08:40:08;98809.31;;;25.21;100.00
57114;BME280;42994;51.606;9.988;2023-06-26T08:42:35;98800.66;;;25.38;100.00
57114;BME280;42994;51.606;9.988;2023-06-26T08:45:02;98802.44;;;25.47;100.00
57114;BME280;42994;51.606;9.988;2023-06-26T08:47:32;98798.97;;;25.99;100.00
57114;BME280;42994;51.606;9.988;2023-06-26T08:50:04;98806.97;;;25.76;100.00
57114;BME280;42994;51.606;9.988;2023-06-26T08:52:35;98805.06;;;25.58;100.00
57114;BME280;42994;51.606;9.988;2023-06-26T08:55:06;98795.19;;;25.76;100.00
57114;BME280;42994;51.606;9.988;2023-06-26T08:57:35;98804.88;;;25.68;100.00
57114;BME280;42994;51.606;9.988;2023-06-26T09:00:03;98795.19;;;25.76;100.00
57114;BME280;42994;51.606;9.988;2023-06-26T09:02:31;98786.19;;;25.70;96.74
57114;BME280;42994;51.606;9.988;2023-06-26T09:04:58;98791.09;;;26.11;99.42
57114;BME280;42994;51.606;9.988;2023-06-26T09:07:25;98781.16;;;25.77;95.35
57114;BME280;42994;51.606;9.988;2023-06-26T09:09:52;98787.63;;;26.05;98.43
57114;BME280;42994;51.606;9.988;2023-06-26T09:12:20;98768.19;;;26.16;95.30
57114;BME280;42994;51.606;9.988;2023-06-26T09:14:47;98767.50;;;25.91;95.53
57114;BME280;42994;51.606;9.988;2023-06-26T09:17:13;98770.34;;;25.67;97.92
57114;BME280;42994;51.606;9.988;2023-06-26T09:19:45;98765.00;;;25.76;100.00
57114;BME280;42994;51.606;9.988;2023-06-26T09:22:13;98755.69;;;25.71;97.99
57114;BME280;42994;51.606;9.988;2023-06-26T09:24:41;98750.91;;;26.15;96.70
57114;BME280;42994;51.606;9.988;2023-06-26T09:27:08;98763.75;;;26.20;100.00
57114;BME280;42994;51.606;9.988;2023-06-26T09:29:34;98773.75;;;26.30;100.00
57114;BME280;42994;51.606;9.988;2023-06-26T09:32:01;98785.69;;;26.39;100.00
57114;BME280;42994;51.606;9.988;2023-06-26T09:34:31;98790.31;;;26.24;97.60
57114;BME280;42994;51.606;9.988;2023-06-26T09:37:00;98799.84;;;26.13;96.11
57114;BME280;42994;51.606;9.988;2023-06-26T09:39:30;98810.84;;;26.46;100.00
57114;BME280;42994;51.606;9.988;2023-06-26T09:41:57;98800.63;;;26.33;99.83
57114;BME280;42994;51.606;9.988;2023-06-26T09:44:24;98798.09;;;26.36;100.00
57114;BME280;42994;51.606;9.988;2023-06-26T09:46:51;98794.56;;;26.17;100.00
57114;BME280;42994;51.606;9.988;2023-06-26T09:49:18;98785.38;;;26.07;100.00
57114;BME280;42994;51.606;9.988;2023-06-26T09:51:45;98800.28;;;26.20;100.00
57114;BME280;42994;51.606;9.988;2023-06-26T09:54:16;98797.81;;;26.38;100.00
57114;BME280;42994;51.606;9.988;2023-06-26T09:56:43;98790.66;;;26.37;100.00
57114;BME280;42994;51.606;9.988;2023-06-26T09:59:09;98793.41;;;26.04;100.00
57114;BME280;42994;51.606;9.988;2023-06-26T10:01:41;98797.03;;;25.80;100.00
57114;BME280;42994;51.606;9.988;2023-06-26T10:04:08;98794.91;;;25.96;100.00
57114;BME280;42994;51.606;9.988;2023-06-26T10:06:36;98799.63;;;26.28;100.00
57114;BME280;42994;51.606;9.988;2023-06-26T10:09:03;98804.56;;;26.26;100.00
57114;BME280;42994;51.606;9.988;2023-06-26T10:11:36;98806.50;;;26.26;100.00
57114;BME280;42994;51.606;9.988;2023-06-26T10:14:04;98800.13;;;26.31;100.00
57114;BME280;42994;51.606;9.988;2023-06-26T10:16:35;98812.50;;;26.28;100.00
57114;BME280;42994;51.606;9.988;2023-06-26T10:19:06;98809.75;;;26.14;100.00
57114;BME280;42994;51.606;9.988;2023-06-26T10:21:35;98806.84;;;26.71;100.00
57114;BME280;42994;51.606;9.988;2023-06-26T10:24:05;98811.34;;;26.67;100.00
57114;BME280;42994;51.606;9.988;2023-06-26T10:26:38;98808.38;;;26.63;100.00
57114;BME280;42994;51.606;9.988;2023-06-26T10:29:07;98817.91;;;25.81;100.00
57114;BME280;42994;51.606;9.988;2023-06-26T10:31:35;98825.44;;;25.89;100.00
57114;BME280;42994;51.606;9.988;2023-06-26T10:34:03;98823.66;;;25.61;100.00
57114;BME280;42994;51.606;9.988;2023-06-26T10:36:31;98834.72;;;25.56;100.00
57114;BME280;42994;51.606;9.988;2023-06-26T10:39:02;98828.63;;;25.59;100.00
57114;BME280;42994;51.606;9.988;2023-06-26T10:41:37;98835.38;;;25.47;100.00
57114;BME280;42994;51.606;9.988;2023-06-26T10:44:09;98830.03;;;25.56;100.00
57114;BME280;42994;51.606;9.988;2023-06-26T10:46:49;98835.72;;;25.41;100.00
57114;BME280;42994;51.606;9.988;2023-06-26T10:49:18;98840.00;;;25.71;100.00
57114;BME280;42994;51.606;9.988;2023-06-26T10:51:48;98840.38;;;25.83;100.00
57114;BME280;42994;51.606;9.988;2023-06-26T10:54:16;98848.13;;;25.57;100.00
57114;BME280;42994;51.606;9.988;2023-06-26T10:56:46;98849.09;;;25.66;100.00
57114;BME280;42994;51.606;9.988;2023-06-26T10:59:14;98870.28;;;25.42;100.00
57114;BME280;42994;51.606;9.988;2023-06-26T11:01:42;98873.47;;;25.30;100.00
57114;BME280;42994;51.606;9.988;2023-06-26T11:04:09;98874.59;;;24.70;100.00
57114;BME280;42994;51.606;9.988;2023-06-26T11:06:38;98872.44;;;24.91;100.00
57114;BME280;42994;51.606;9.988;2023-06-26T11:09:10;98865.59;;;24.65;100.00
57114;BME280;42994;51.606;9.988;2023-06-26T11:12:00;98879.25;;;24.35;100.00
57114;BME280;42994;51.606;9.988;2023-06-26T11:14:31;98884.63;;;24.11;100.00
57114;BME280;42994;51.606;9.988;2023-06-26T11:16:59;98901.69;;;23.93;100.00
57114;BME280;42994;51.606;9.988;2023-06-26T11:19:28;98903.19;;;23.54;100.00
57114;BME280;42994;51.606;9.988;2023-06-26T11:21:59;98927.38;;;23.27;100.00
57114;BME280;42994;51.606;9.988;2023-06-26T11:24:26;98935.88;;;23.10;100.00
57114;BME280;42994;51.606;9.988;2023-06-26T11:26:54;98953.91;;;23.00;100.00
57114;BME280;42994;51.606;9.988;2023-06-26T11:29:27;98975.75;;;22.59;100.00
57114;BME280;42994;51.606;9.988;2023-06-26T11:31:58;99004.16;;;22.53;100.00
57114;BME280;42994;51.606;9.988;2023-06-26T11:34:29;98978.56;;;21.38;100.00
57114;BME280;42994;51.606;9.988;2023-06-26T11:36:57;98958.31;;;20.91;100.00
57114;BME280;42994;51.606;9.988;2023-06-26T11:39:23;98934.25;;;20.51;100.00
57114;BME280;42994;51.606;9.988;2023-06-26T11:41:50;98924.31;;;20.62;100.00
57114;BME280;42994;51.606;9.988;2023-06-26T11:44:17;98896.41;;;20.49;100.00
57114;BME280;42994;51.606;9.988;2023-06-26T11:46:47;98888.47;;;20.75;100.00
57114;BME280;42994;51.606;9.988;2023-06-26T11:49:16;98894.47;;;21.20;100.00
57114;BME280;42994;51.606;9.988;2023-06-26T11:51:42;98880.66;;;21.37;100.00
57114;BME280;42994;51.606;9.988;2023-06-26T11:54:09;98891.84;;;21.40;100.00
57114;BME280;42994;51.606;9.988;2023-06-26T11:56:37;98875.84;;;21.49;100.00
57114;BME280;42994;51.606;9.988;2023-06-26T11:59:05;98892.03;;;21.23;100.00
57114;BME280;42994;51.606;9.988;2023-06-26T12:01:33;98898.38;;;21.39;100.00
57114;BME280;42994;51.606;9.988;2023-06-26T12:04:03;98902.84;;;21.50;100.00
57114;BME280;42994;51.606;9.988;2023-06-26T12:06:31;98915.34;;;21.46;100.00
57114;BME280;42994;51.606;9.988;2023-06-26T12:09:00;98915.94;;;21.48;100.00
57114;BME280;42994;51.606;9.988;2023-06-26T12:11:27;98895.78;;;21.60;100.00
57114;BME280;42994;51.606;9.988;2023-06-26T12:13:55;98906.13;;;21.53;100.00
57114;BME280;42994;51.606;9.988;2023-06-26T12:16:22;98893.31;;;21.58;100.00
57114;BME280;42994;51.606;9.988;2023-06-26T12:18:49;98902.50;;;21.42;100.00
57114;BME280;42994;51.606;9.988;2023-06-26T12:21:45;98904.94;;;21.38;100.00
57114;BME280;42994;51.606;9.988;2023-06-26T12:24:14;98898.59;;;21.27;100.00
57114;BME280;42994;51.606;9.988;2023-06-26T12:26:41;98901.09;;;21.34;100.00
57114;BME280;42994;51.606;9.988;2023-06-26T12:29:10;98893.59;;;21.57;100.00
57114;BME280;42994;51.606;9.988;2023-06-26T12:31:40;98898.28;;;21.72;100.00
57114;BME280;42994;51.606;9.988;2023-06-26T12:34:09;98899.66;;;21.74;100.00
57114;BME280;42994;51.606;9.988;2023-06-26T12:36:39;98903.78;;;21.82;100.00
57114;BME280;42994;51.606;9.988;2023-06-26T12:39:09;98909.81;;;21.99;100.00
57114;BME280;42994;51.606;9.988;2023-06-26T12:41:44;98892.63;;;22.04;100.00
57114;BME280;42994;51.606;9.988;2023-06-26T12:44:17;98901.84;;;21.82;100.00
57114;BME280;42994;51.606;9.988;2023-06-26T12:46:46;98898.88;;;21.89;100.00
57114;BME280;42994;51.606;9.988;2023-06-26T12:49:12;98915.25;;;21.99;100.00
57114;BME280;42994;51.606;9.988;2023-06-26T12:51:39;98926.53;;;22.23;100.00
57114;BME280;42994;51.606;9.988;2023-06-26T12:54:07;98930.06;;;22.24;100.00
57114;BME280;42994;51.606;9.988;2023-06-26T12:56:34;98942.63;;;22.20;100.00